• Join FlightAware (Why Join?)
  • Login
  • US Flag 
12:21PM EDT


 

Airport Tracker/Info


-or-


 

Live Flight TrackerFlight Track Log ✈ WIS101 ✈ 13-May-2013 ✈ KANE - KFAR

Flight Track Log - Related Links

Times and Time Zones

All times are in EDT time to prevent confusion due to time zone crossing. See the WIS101 flight status page for this flight to view local times or setup timezone preferences in your user account.

Time Position Orientation Groundspeed Altitude Reporting Facility
EDT Latitude Longitude Course Direction KTS MPH feet Rate Location/Type
07:45AM 45.2000 -93.3167 307° West 159 183 2,700  Level Minneapolis TRACON
07:46AM 45.2333 -93.3500 325° Northwest 160 184 3,500 660 Climbing Minneapolis TRACON
07:47AM 45.2450 -93.3544 345° North 160 184 3,600 780 Climbing Minneapolis Center
07:48AM 45.2794 -93.3872 326° Northwest 151 174 4,600 840 Climbing Minneapolis Center
07:49AM 45.3022 -93.4289 308° West 138 159 5,400 660 Climbing Minneapolis Center
07:50AM 45.3244 -93.4858 299° West 143 165 6,000 240 Climbing Minneapolis Center
07:51AM 45.3183 -93.5427 307° West  Level Estimated
07:51AM 45.3453 -93.5419 298° West 156 180 6,000  Level Minneapolis Center
07:52AM 45.3658 -93.5969 298° West 158 182 6,000  Level Minneapolis Center
07:53AM 45.3858 -93.6531 297° West 159 183 6,000  Level Minneapolis Center
07:54AM 45.4072 -93.7069 299° West 158 182 6,000  Level Minneapolis Center
07:55AM 45.4269 -93.7614 297° West 156 180 6,000  Level Minneapolis Center
07:56AM 45.4483 -93.8150 300° West 157 181 6,000  Level Minneapolis Center
07:57AM 45.4681 -93.8694 297° West 155 178 6,000  Level Minneapolis Center
07:58AM 45.4889 -93.9242 299° West 159 183 6,000  Level Minneapolis Center
07:59AM 45.5086 -93.9808 296° West 160 184 6,000  Level Minneapolis Center
08:00AM 45.5278 -94.0383 295° West 161 185 6,000  Level Minneapolis Center
08:01AM 45.5519 -94.1050 297° West 159 183 6,100  Climbing Minneapolis Center
08:02AM 45.5747 -94.1589 301° West 159 183 6,000 -60 Descending Minneapolis Center
08:03AM 45.5942 -94.2161 296° West 161 185 6,000  Level Minneapolis Center
08:04AM 45.6150 -94.2703 299° West 157 181 6,000 -60 Level Minneapolis Center
08:05AM 45.6353 -94.3275 297° West 160 184 5,900 -60 Descending Minneapolis Center
08:06AM 45.6569 -94.3819 300° West 160 184 5,900  Level Minneapolis Center
08:07AM 45.6775 -94.4378 298° West 159 183 5,900  Level Minneapolis Center
08:08AM 45.6967 -94.4903 298° West 155 178 6,000  Climbing Minneapolis Center
08:09AM 45.7181 -94.5447 299° West 156 180 6,000  Level Minneapolis Center
08:10AM 45.7383 -94.6000 298° West 157 181 6,000  Level Minneapolis Center
08:11AM 45.7611 -94.6683 296° West 158 182 6,000  Level Minneapolis Center
08:12AM 45.7783 -94.7275 293° West 159 183 6,000 -60 Level Minneapolis Center
08:13AM 45.7947 -94.7706 299° West 158 182 5,900 -60 Descending Minneapolis Center
08:14AM 45.8167 -94.8392 295° West 158 182 5,900  Level Minneapolis Center
08:15AM 45.8350 -94.8939 296° West 158 182 5,900  Level Minneapolis Center
08:16AM 45.8661 -94.9358 317° Northwest 157 181 6,000  Climbing Minneapolis Center
08:17AM 45.8778 -95.0008 284° West 161 185 6,000  Level Minneapolis Center
08:18AM 45.8967 -95.0608 294° West 163 188 6,000  Level Minneapolis Center
08:19AM 45.9203 -95.1283 297° West 163 188 6,000  Level Minneapolis Center
08:20AM 45.9372 -95.1786 296° West 162 186 6,000  Level Minneapolis Center
08:21AM 45.9592 -95.2353 299° West 162 186 6,000 -60 Level Minneapolis Center
08:23AM 45.9866 -95.2900 306° West  Level FlightAware Approximate
08:30AM 46.1699 -95.6555 306° West  Level FlightAware Approximate
08:31AM 46.1961 -95.7078 306° West  Level FlightAware Approximate
08:32AM 46.2223 -95.7601 306° West  Level FlightAware Approximate
08:33AM 46.2484 -95.8126 306° West  Level FlightAware Approximate
08:34AM 46.2746 -95.8650 306° West  Level FlightAware Approximate
08:35AM 46.3007 -95.9175 306° West  Level FlightAware Approximate
08:36AM 46.3268 -95.9700 306° West  Level FlightAware Approximate
08:37AM 46.3530 -96.0225 306° West  Level FlightAware Approximate
08:37AM 46.3872 -96.1044 300° West 171 197 5,900  Level Minneapolis Center
08:38AM 46.3792 -96.0749 306° West  Level FlightAware Approximate
08:38AM 46.4153 -96.1628 305° West 171 197 6,000  Level Minneapolis Center
08:39AM 46.4055 -96.1273 306° West  Level FlightAware Approximate
08:39AM 46.4419 -96.2147 307° West 168 193 6,100  Level Minneapolis Center
08:40AM 46.4317 -96.1798 306° West  Level FlightAware Approximate
08:40AM 46.4717 -96.2719 307° West 170 196 6,000  Level Minneapolis Center
08:41AM 46.4579 -96.2324 306° West  Level FlightAware Approximate
08:42AM 46.4816 -96.2873 300° West  Level FlightAware Approximate
08:42AM 46.5172 -96.3300 319° Northwest 170 196 6,000  Level Minneapolis Center
08:43AM 46.5544 -96.3736 321° Northwest 170 196 6,000  Level Minneapolis Center
08:44AM 46.5881 -96.4225 315° West 171 197 6,000 -300 Level Minneapolis Center
08:45AM 46.6283 -96.4731 319° Northwest 182 209 5,400 -600 Descending Minneapolis Center
08:46AM 46.6711 -96.5242 321° Northwest 191 220 4,800 -540 Descending Minneapolis Center
08:47AM 46.7128 -96.5758 320° Northwest 189 217 4,300 -540 Descending Minneapolis Center
08:48AM 46.7544 -96.6217 323° Northwest 194 223 3,700 -600 Descending Minneapolis Center
08:49AM 46.7997 -96.6664 326° Northwest 191 220 3,100 -600 Descending Minneapolis Center
08:50AM 46.8442 -96.7139 324° Northwest 188 216 2,500 -540 Descending Minneapolis Center
08:51AM 46.8861 -96.7658 320° Northwest 188 216 2,000 -300 Descending Minneapolis Center
08:52AM 46.9328 -96.7808 348° North 185 213 2,000 -420 Level Minneapolis Center
08:53AM 46.9417 -96.8161 290° West 124 143 1,200 -840 Descending Minneapolis Center